sensor_id;sensor_type;location;lat;lon;timestamp;P1;durP1;ratioP1;P2;durP2;ratioP2
51949;SDS011;37974;53.218;6.640;2022-08-03T00:01:50;8.50;;;1.85;;
51949;SDS011;37974;53.218;6.640;2022-08-03T00:04:16;12.40;;;1.80;;
51949;SDS011;37974;53.218;6.640;2022-08-03T00:06:42;11.43;;;2.30;;
51949;SDS011;37974;53.218;6.640;2022-08-03T00:09:07;15.65;;;2.60;;
51949;SDS011;37974;53.218;6.640;2022-08-03T00:11:33;11.02;;;2.33;;
51949;SDS011;37974;53.218;6.640;2022-08-03T00:14:01;11.40;;;2.35;;
51949;SDS011;37974;53.218;6.640;2022-08-03T00:16:27;12.13;;;2.33;;
51949;SDS011;37974;53.218;6.640;2022-08-03T00:18:53;15.10;;;1.90;;
51949;SDS011;37974;53.218;6.640;2022-08-03T00:21:19;15.60;;;2.15;;
51949;SDS011;37974;53.218;6.640;2022-08-03T00:23:44;13.70;;;2.25;;
51949;SDS011;37974;53.218;6.640;2022-08-03T00:26:10;16.30;;;2.63;;
51949;SDS011;37974;53.218;6.640;2022-08-03T00:28:36;9.85;;;2.42;;
51949;SDS011;37974;53.218;6.640;2022-08-03T00:31:02;12.27;;;2.03;;
51949;SDS011;37974;53.218;6.640;2022-08-03T00:33:27;13.75;;;2.20;;
51949;SDS011;37974;53.218;6.640;2022-08-03T00:35:53;9.20;;;1.83;;
51949;SDS011;37974;53.218;6.640;2022-08-03T00:38:19;12.15;;;2.42;;
51949;SDS011;37974;53.218;6.640;2022-08-03T00:40:45;15.43;;;2.42;;
51949;SDS011;37974;53.218;6.640;2022-08-03T00:43:11;7.55;;;1.95;;
51949;SDS011;37974;53.218;6.640;2022-08-03T00:45:38;18.08;;;2.50;;
51949;SDS011;37974;53.218;6.640;2022-08-03T00:48:06;14.38;;;2.10;;
51949;SDS011;37974;53.218;6.640;2022-08-03T00:50:34;10.90;;;2.20;;
51949;SDS011;37974;53.218;6.640;2022-08-03T00:53:04;13.52;;;2.60;;
51949;SDS011;37974;53.218;6.640;2022-08-03T00:55:31;19.42;;;2.83;;
51949;SDS011;37974;53.218;6.640;2022-08-03T00:57:58;12.18;;;2.50;;
51949;SDS011;37974;53.218;6.640;2022-08-03T01:00:25;9.93;;;2.00;;
51949;SDS011;37974;53.218;6.640;2022-08-03T01:02:52;10.60;;;1.98;;
51949;SDS011;37974;53.218;6.640;2022-08-03T01:05:19;17.77;;;2.85;;
51949;SDS011;37974;53.218;6.640;2022-08-03T01:12:58;14.45;;;2.58;;
51949;SDS011;37974;53.218;6.640;2022-08-03T01:15:45;11.55;;;2.53;;
51949;SDS011;37974;53.218;6.640;2022-08-03T01:18:13;15.55;;;2.55;;
51949;SDS011;37974;53.218;6.640;2022-08-03T01:20:46;15.55;;;2.40;;
51949;SDS011;37974;53.218;6.640;2022-08-03T01:23:36;15.30;;;2.85;;
51949;SDS011;37974;53.218;6.640;2022-08-03T01:26:15;16.48;;;2.10;;
51949;SDS011;37974;53.218;6.640;2022-08-03T01:29:05;12.68;;;2.22;;
51949;SDS011;37974;53.218;6.640;2022-08-03T01:31:52;11.88;;;2.50;;
51949;SDS011;37974;53.218;6.640;2022-08-03T01:34:40;11.90;;;2.70;;
51949;SDS011;37974;53.218;6.640;2022-08-03T01:37:12;10.18;;;1.75;;
51949;SDS011;37974;53.218;6.640;2022-08-03T01:39:45;12.60;;;1.83;;
51949;SDS011;37974;53.218;6.640;2022-08-03T01:42:13;7.70;;;1.90;;
51949;SDS011;37974;53.218;6.640;2022-08-03T01:44:41;10.07;;;2.13;;
51949;SDS011;37974;53.218;6.640;2022-08-03T01:47:09;7.53;;;1.60;;
51949;SDS011;37974;53.218;6.640;2022-08-03T01:49:37;12.13;;;1.88;;
51949;SDS011;37974;53.218;6.640;2022-08-03T01:52:07;14.65;;;2.17;;
51949;SDS011;37974;53.218;6.640;2022-08-03T01:54:36;10.55;;;2.10;;
51949;SDS011;37974;53.218;6.640;2022-08-03T01:57:07;11.55;;;1.50;;
51949;SDS011;37974;53.218;6.640;2022-08-03T01:59:34;8.82;;;2.10;;
51949;SDS011;37974;53.218;6.640;2022-08-03T02:02:02;8.05;;;1.92;;
51949;SDS011;37974;53.218;6.640;2022-08-03T02:04:29;10.93;;;2.20;;
51949;SDS011;37974;53.218;6.640;2022-08-03T02:06:56;9.02;;;2.00;;
51949;SDS011;37974;53.218;6.640;2022-08-03T02:09:23;12.25;;;2.60;;
51949;SDS011;37974;53.218;6.640;2022-08-03T02:11:51;9.48;;;1.88;;
51949;SDS011;37974;53.218;6.640;2022-08-03T02:14:19;13.23;;;2.60;;
51949;SDS011;37974;53.218;6.640;2022-08-03T02:16:46;9.90;;;2.13;;
51949;SDS011;37974;53.218;6.640;2022-08-03T02:19:14;18.00;;;2.05;;
51949;SDS011;37974;53.218;6.640;2022-08-03T02:21:42;14.52;;;1.90;;
51949;SDS011;37974;53.218;6.640;2022-08-03T02:24:09;6.30;;;1.45;;
51949;SDS011;37974;53.218;6.640;2022-08-03T02:26:35;12.18;;;2.30;;
51949;SDS011;37974;53.218;6.640;2022-08-03T02:29:06;13.10;;;1.92;;
51949;SDS011;37974;53.218;6.640;2022-08-03T02:31:37;10.90;;;2.10;;
51949;SDS011;37974;53.218;6.640;2022-08-03T02:34:07;8.63;;;1.90;;
51949;SDS011;37974;53.218;6.640;2022-08-03T02:36:37;10.52;;;2.10;;
51949;SDS011;37974;53.218;6.640;2022-08-03T02:39:05;8.10;;;1.77;;
51949;SDS011;37974;53.218;6.640;2022-08-03T02:41:36;12.40;;;2.53;;
51949;SDS011;37974;53.218;6.640;2022-08-03T02:44:07;9.23;;;1.88;;
51949;SDS011;37974;53.218;6.640;2022-08-03T02:46:35;15.40;;;2.10;;
51949;SDS011;37974;53.218;6.640;2022-08-03T02:49:02;11.07;;;1.73;;
51949;SDS011;37974;53.218;6.640;2022-08-03T02:51:31;7.75;;;1.85;;
51949;SDS011;37974;53.218;6.640;2022-08-03T02:54:01;14.85;;;2.05;;
51949;SDS011;37974;53.218;6.640;2022-08-03T02:56:28;11.35;;;1.90;;
51949;SDS011;37974;53.218;6.640;2022-08-03T02:58:55;12.45;;;2.15;;
51949;SDS011;37974;53.218;6.640;2022-08-03T03:01:23;11.27;;;1.95;;
51949;SDS011;37974;53.218;6.640;2022-08-03T03:03:50;15.05;;;2.08;;
51949;SDS011;37974;53.218;6.640;2022-08-03T03:06:17;8.88;;;1.80;;
51949;SDS011;37974;53.218;6.640;2022-08-03T03:08:44;9.43;;;1.95;;
51949;SDS011;37974;53.218;6.640;2022-08-03T03:11:12;12.93;;;1.98;;
51949;SDS011;37974;53.218;6.640;2022-08-03T03:13:40;10.43;;;2.30;;
51949;SDS011;37974;53.218;6.640;2022-08-03T03:16:08;12.55;;;2.25;;
51949;SDS011;37974;53.218;6.640;2022-08-03T03:18:35;9.30;;;1.70;;
51949;SDS011;37974;53.218;6.640;2022-08-03T03:21:03;16.10;;;2.17;;
51949;SDS011;37974;53.218;6.640;2022-08-03T03:23:29;11.27;;;2.50;;
51949;SDS011;37974;53.218;6.640;2022-08-03T03:25:56;13.40;;;2.17;;
51949;SDS011;37974;53.218;6.640;2022-08-03T03:28:23;9.25;;;1.98;;
51949;SDS011;37974;53.218;6.640;2022-08-03T03:30:49;11.65;;;2.35;;
51949;SDS011;37974;53.218;6.640;2022-08-03T03:33:16;11.30;;;1.90;;
51949;SDS011;37974;53.218;6.640;2022-08-03T03:35:42;13.60;;;2.10;;
51949;SDS011;37974;53.218;6.640;2022-08-03T03:38:10;6.53;;;1.65;;
51949;SDS011;37974;53.218;6.640;2022-08-03T03:40:36;12.30;;;1.98;;
51949;SDS011;37974;53.218;6.640;2022-08-03T03:43:06;11.27;;;2.15;;
51949;SDS011;37974;53.218;6.640;2022-08-03T03:45:33;12.82;;;2.10;;
51949;SDS011;37974;53.218;6.640;2022-08-03T03:48:00;12.88;;;2.05;;
51949;SDS011;37974;53.218;6.640;2022-08-03T03:50:28;9.98;;;2.00;;
51949;SDS011;37974;53.218;6.640;2022-08-03T03:52:56;13.52;;;2.40;;
51949;SDS011;37974;53.218;6.640;2022-08-03T03:55:23;12.18;;;3.10;;
51949;SDS011;37974;53.218;6.640;2022-08-03T03:57:48;11.68;;;2.25;;
51949;SDS011;37974;53.218;6.640;2022-08-03T04:00:15;13.85;;;2.90;;
51949;SDS011;37974;53.218;6.640;2022-08-03T04:02:42;11.77;;;2.28;;
51949;SDS011;37974;53.218;6.640;2022-08-03T04:05:09;14.57;;;2.65;;
51949;SDS011;37974;53.218;6.640;2022-08-03T04:07:58;12.98;;;2.05;;
51949;SDS011;37974;53.218;6.640;2022-08-03T04:13:37;7.40;;;2.15;;
51949;SDS011;37974;53.218;6.640;2022-08-03T04:16:07;9.52;;;2.28;;
51949;SDS011;37974;53.218;6.640;2022-08-03T04:18:36;8.93;;;2.25;;
51949;SDS011;37974;53.218;6.640;2022-08-03T04:21:05;9.27;;;2.20;;
51949;SDS011;37974;53.218;6.640;2022-08-03T04:23:34;13.50;;;2.30;;
51949;SDS011;37974;53.218;6.640;2022-08-03T04:26:05;14.88;;;3.17;;
51949;SDS011;37974;53.218;6.640;2022-08-03T04:28:36;14.13;;;2.50;;
51949;SDS011;37974;53.218;6.640;2022-08-03T04:31:03;11.18;;;2.30;;
51949;SDS011;37974;53.218;6.640;2022-08-03T04:33:31;15.30;;;2.33;;
51949;SDS011;37974;53.218;6.640;2022-08-03T04:36:00;12.07;;;2.42;;
51949;SDS011;37974;53.218;6.640;2022-08-03T04:38:28;14.50;;;2.30;;
51949;SDS011;37974;53.218;6.640;2022-08-03T04:40:56;13.13;;;2.70;;
51949;SDS011;37974;53.218;6.640;2022-08-03T04:43:22;16.80;;;2.22;;
51949;SDS011;37974;53.218;6.640;2022-08-03T04:45:49;14.52;;;2.40;;
51949;SDS011;37974;53.218;6.640;2022-08-03T04:48:16;12.02;;;2.80;;
51949;SDS011;37974;53.218;6.640;2022-08-03T04:50:44;16.30;;;3.25;;
51949;SDS011;37974;53.218;6.640;2022-08-03T04:53:11;12.82;;;3.05;;
51949;SDS011;37974;53.218;6.640;2022-08-03T04:55:37;11.02;;;2.50;;
51949;SDS011;37974;53.218;6.640;2022-08-03T04:58:03;14.45;;;3.03;;
51949;SDS011;37974;53.218;6.640;2022-08-03T05:00:30;13.20;;;3.03;;
51949;SDS011;37974;53.218;6.640;2022-08-03T05:02:56;10.35;;;3.00;;
51949;SDS011;37974;53.218;6.640;2022-08-03T05:05:22;14.40;;;2.97;;
51949;SDS011;37974;53.218;6.640;2022-08-03T05:07:48;6.65;;;2.25;;
51949;SDS011;37974;53.218;6.640;2022-08-03T05:10:14;13.45;;;3.10;;
51949;SDS011;37974;53.218;6.640;2022-08-03T05:12:40;17.85;;;2.90;;
51949;SDS011;37974;53.218;6.640;2022-08-03T05:15:06;14.00;;;2.50;;
51949;SDS011;37974;53.218;6.640;2022-08-03T05:17:32;12.43;;;2.53;;
51949;SDS011;37974;53.218;6.640;2022-08-03T05:19:58;14.20;;;2.40;;
51949;SDS011;37974;53.218;6.640;2022-08-03T05:22:25;16.40;;;2.83;;
51949;SDS011;37974;53.218;6.640;2022-08-03T05:24:51;12.40;;;2.65;;
51949;SDS011;37974;53.218;6.640;2022-08-03T05:27:17;15.50;;;3.05;;
51949;SDS011;37974;53.218;6.640;2022-08-03T05:29:44;10.13;;;2.75;;
51949;SDS011;37974;53.218;6.640;2022-08-03T05:32:11;11.13;;;2.70;;
51949;SDS011;37974;53.218;6.640;2022-08-03T05:34:37;13.70;;;3.03;;
51949;SDS011;37974;53.218;6.640;2022-08-03T05:37:02;18.30;;;3.13;;
51949;SDS011;37974;53.218;6.640;2022-08-03T05:39:28;17.92;;;2.97;;
51949;SDS011;37974;53.218;6.640;2022-08-03T05:41:54;20.73;;;2.80;;
51949;SDS011;37974;53.218;6.640;2022-08-03T05:44:19;10.13;;;2.28;;
51949;SDS011;37974;53.218;6.640;2022-08-03T05:46:46;14.73;;;2.63;;
51949;SDS011;37974;53.218;6.640;2022-08-03T05:49:11;14.43;;;3.10;;
51949;SDS011;37974;53.218;6.640;2022-08-03T05:51:37;24.45;;;2.95;;
51949;SDS011;37974;53.218;6.640;2022-08-03T05:54:03;14.70;;;2.85;;
51949;SDS011;37974;53.218;6.640;2022-08-03T05:56:28;13.57;;;2.58;;
51949;SDS011;37974;53.218;6.640;2022-08-03T05:58:54;10.60;;;2.70;;
51949;SDS011;37974;53.218;6.640;2022-08-03T06:01:20;20.10;;;3.10;;
51949;SDS011;37974;53.218;6.640;2022-08-03T06:03:47;10.65;;;2.33;;
51949;SDS011;37974;53.218;6.640;2022-08-03T06:06:13;14.07;;;2.65;;
51949;SDS011;37974;53.218;6.640;2022-08-03T06:08:40;13.40;;;2.88;;
51949;SDS011;37974;53.218;6.640;2022-08-03T06:11:06;12.55;;;2.88;;
51949;SDS011;37974;53.218;6.640;2022-08-03T06:13:32;14.05;;;2.88;;
51949;SDS011;37974;53.218;6.640;2022-08-03T06:15:58;13.52;;;2.67;;
51949;SDS011;37974;53.218;6.640;2022-08-03T06:18:24;16.13;;;3.08;;
51949;SDS011;37974;53.218;6.640;2022-08-03T06:20:50;18.20;;;2.70;;
51949;SDS011;37974;53.218;6.640;2022-08-03T06:23:16;11.77;;;2.10;;
51949;SDS011;37974;53.218;6.640;2022-08-03T06:25:42;20.38;;;3.15;;
51949;SDS011;37974;53.218;6.640;2022-08-03T06:28:08;9.13;;;2.65;;
51949;SDS011;37974;53.218;6.640;2022-08-03T06:30:34;13.50;;;2.45;;
51949;SDS011;37974;53.218;6.640;2022-08-03T06:33:00;13.60;;;2.22;;
51949;SDS011;37974;53.218;6.640;2022-08-03T06:35:26;17.63;;;3.25;;
51949;SDS011;37974;53.218;6.640;2022-08-03T06:37:52;11.75;;;2.75;;
51949;SDS011;37974;53.218;6.640;2022-08-03T06:40:20;13.10;;;2.58;;
51949;SDS011;37974;53.218;6.640;2022-08-03T06:42:55;15.95;;;2.83;;
51949;SDS011;37974;53.218;6.640;2022-08-03T06:45:22;10.80;;;2.75;;
51949;SDS011;37974;53.218;6.640;2022-08-03T06:47:58;17.67;;;2.78;;
51949;SDS011;37974;53.218;6.640;2022-08-03T06:50:25;19.45;;;3.00;;
51949;SDS011;37974;53.218;6.640;2022-08-03T06:52:51;13.82;;;3.08;;
51949;SDS011;37974;53.218;6.640;2022-08-03T06:55:17;17.17;;;2.78;;
51949;SDS011;37974;53.218;6.640;2022-08-03T06:57:43;12.13;;;2.40;;
51949;SDS011;37974;53.218;6.640;2022-08-03T07:00:09;18.60;;;3.08;;
51949;SDS011;37974;53.218;6.640;2022-08-03T07:02:36;13.95;;;3.00;;
51949;SDS011;37974;53.218;6.640;2022-08-03T07:05:02;16.67;;;2.88;;
51949;SDS011;37974;53.218;6.640;2022-08-03T07:07:28;14.20;;;2.58;;
51949;SDS011;37974;53.218;6.640;2022-08-03T07:09:54;10.50;;;2.60;;
51949;SDS011;37974;53.218;6.640;2022-08-03T07:12:20;14.95;;;2.78;;
51949;SDS011;37974;53.218;6.640;2022-08-03T07:14:45;13.95;;;2.40;;
51949;SDS011;37974;53.218;6.640;2022-08-03T07:17:11;10.75;;;2.63;;
51949;SDS011;37974;53.218;6.640;2022-08-03T07:19:37;13.02;;;2.75;;
51949;SDS011;37974;53.218;6.640;2022-08-03T07:22:02;16.08;;;3.17;;
51949;SDS011;37974;53.218;6.640;2022-08-03T07:24:28;16.42;;;2.92;;
51949;SDS011;37974;53.218;6.640;2022-08-03T07:26:54;11.75;;;2.85;;
51949;SDS011;37974;53.218;6.640;2022-08-03T07:29:20;15.98;;;3.20;;
51949;SDS011;37974;53.218;6.640;2022-08-03T07:31:45;13.38;;;2.90;;
51949;SDS011;37974;53.218;6.640;2022-08-03T07:34:11;19.25;;;2.88;;
51949;SDS011;37974;53.218;6.640;2022-08-03T07:36:37;16.48;;;3.08;;
51949;SDS011;37974;53.218;6.640;2022-08-03T07:39:03;11.15;;;2.97;;
51949;SDS011;37974;53.218;6.640;2022-08-03T07:41:29;16.50;;;2.80;;
51949;SDS011;37974;53.218;6.640;2022-08-03T07:43:55;16.13;;;2.63;;
51949;SDS011;37974;53.218;6.640;2022-08-03T07:46:21;16.73;;;3.75;;
51949;SDS011;37974;53.218;6.640;2022-08-03T07:48:47;14.23;;;2.50;;
51949;SDS011;37974;53.218;6.640;2022-08-03T07:51:13;14.55;;;2.70;;
51949;SDS011;37974;53.218;6.640;2022-08-03T07:53:39;19.20;;;3.30;;
51949;SDS011;37974;53.218;6.640;2022-08-03T07:56:04;13.40;;;2.65;;
51949;SDS011;37974;53.218;6.640;2022-08-03T07:58:30;10.20;;;2.45;;
51949;SDS011;37974;53.218;6.640;2022-08-03T08:00:56;13.20;;;2.78;;
51949;SDS011;37974;53.218;6.640;2022-08-03T08:03:21;15.45;;;2.60;;
51949;SDS011;37974;53.218;6.640;2022-08-03T08:05:47;25.02;;;2.90;;
51949;SDS011;37974;53.218;6.640;2022-08-03T08:08:13;13.57;;;2.72;;
51949;SDS011;37974;53.218;6.640;2022-08-03T08:10:39;13.30;;;2.55;;
51949;SDS011;37974;53.218;6.640;2022-08-03T08:13:05;12.10;;;2.38;;
51949;SDS011;37974;53.218;6.640;2022-08-03T08:15:30;17.65;;;3.10;;
51949;SDS011;37974;53.218;6.640;2022-08-03T08:17:57;12.68;;;3.17;;
51949;SDS011;37974;53.218;6.640;2022-08-03T08:20:26;16.00;;;3.03;;
51949;SDS011;37974;53.218;6.640;2022-08-03T08:22:54;10.50;;;2.25;;
51949;SDS011;37974;53.218;6.640;2022-08-03T08:25:21;14.77;;;2.42;;
51949;SDS011;37974;53.218;6.640;2022-08-03T08:27:47;14.13;;;2.50;;
51949;SDS011;37974;53.218;6.640;2022-08-03T08:30:14;17.90;;;2.67;;
51949;SDS011;37974;53.218;6.640;2022-08-03T08:32:43;12.10;;;2.47;;
51949;SDS011;37974;53.218;6.640;2022-08-03T08:35:09;12.27;;;2.90;;
51949;SDS011;37974;53.218;6.640;2022-08-03T08:37:36;12.40;;;3.28;;
51949;SDS011;37974;53.218;6.640;2022-08-03T08:40:03;12.10;;;2.50;;
51949;SDS011;37974;53.218;6.640;2022-08-03T08:42:30;12.52;;;2.88;;
51949;SDS011;37974;53.218;6.640;2022-08-03T08:44:56;15.57;;;2.95;;
51949;SDS011;37974;53.218;6.640;2022-08-03T08:47:24;13.38;;;2.47;;
51949;SDS011;37974;53.218;6.640;2022-08-03T08:49:53;14.50;;;2.70;;
51949;SDS011;37974;53.218;6.640;2022-08-03T08:52:23;18.73;;;2.67;;
51949;SDS011;37974;53.218;6.640;2022-08-03T08:54:51;12.77;;;3.13;;
51949;SDS011;37974;53.218;6.640;2022-08-03T08:57:22;10.55;;;2.55;;
51949;SDS011;37974;53.218;6.640;2022-08-03T08:59:52;19.95;;;2.95;;
51949;SDS011;37974;53.218;6.640;2022-08-03T09:02:21;15.00;;;3.00;;
51949;SDS011;37974;53.218;6.640;2022-08-03T09:04:48;15.50;;;3.05;;
51949;SDS011;37974;53.218;6.640;2022-08-03T09:07:14;13.40;;;2.35;;
51949;SDS011;37974;53.218;6.640;2022-08-03T09:09:41;13.43;;;2.55;;
51949;SDS011;37974;53.218;6.640;2022-08-03T09:12:08;16.70;;;2.83;;
51949;SDS011;37974;53.218;6.640;2022-08-03T09:14:33;13.15;;;2.67;;
51949;SDS011;37974;53.218;6.640;2022-08-03T09:17:00;14.18;;;2.90;;
51949;SDS011;37974;53.218;6.640;2022-08-03T09:19:28;12.85;;;2.47;;
51949;SDS011;37974;53.218;6.640;2022-08-03T09:22:11;26.02;;;2.90;;
51949;SDS011;37974;53.218;6.640;2022-08-03T09:24:53;16.48;;;2.78;;
51949;SDS011;37974;53.218;6.640;2022-08-03T09:27:21;10.98;;;3.00;;
51949;SDS011;37974;53.218;6.640;2022-08-03T09:29:47;13.23;;;2.60;;
51949;SDS011;37974;53.218;6.640;2022-08-03T09:32:14;16.02;;;3.20;;
51949;SDS011;37974;53.218;6.640;2022-08-03T09:34:43;14.15;;;2.88;;
51949;SDS011;37974;53.218;6.640;2022-08-03T09:37:12;13.80;;;3.42;;
51949;SDS011;37974;53.218;6.640;2022-08-03T09:39:40;17.02;;;3.10;;
51949;SDS011;37974;53.218;6.640;2022-08-03T09:42:07;14.05;;;2.70;;
51949;SDS011;37974;53.218;6.640;2022-08-03T09:44:38;11.48;;;3.20;;
51949;SDS011;37974;53.218;6.640;2022-08-03T09:47:06;18.15;;;3.05;;
51949;SDS011;37974;53.218;6.640;2022-08-03T09:49:35;16.75;;;2.97;;
51949;SDS011;37974;53.218;6.640;2022-08-03T09:52:10;13.13;;;3.00;;
51949;SDS011;37974;53.218;6.640;2022-08-03T09:54:42;11.32;;;3.42;;
51949;SDS011;37974;53.218;6.640;2022-08-03T09:57:18;18.27;;;2.65;;
51949;SDS011;37974;53.218;6.640;2022-08-03T09:59:46;17.33;;;4.00;;
51949;SDS011;37974;53.218;6.640;2022-08-03T10:02:22;12.52;;;3.05;;
51949;SDS011;37974;53.218;6.640;2022-08-03T10:04:50;13.85;;;2.83;;
51949;SDS011;37974;53.218;6.640;2022-08-03T10:07:17;14.68;;;2.88;;
51949;SDS011;37974;53.218;6.640;2022-08-03T10:09:52;9.82;;;2.78;;
51949;SDS011;37974;53.218;6.640;2022-08-03T10:12:21;21.02;;;2.95;;
51949;SDS011;37974;53.218;6.640;2022-08-03T10:14:47;21.48;;;3.20;;
51949;SDS011;37974;53.218;6.640;2022-08-03T10:17:13;16.83;;;3.03;;
51949;SDS011;37974;53.218;6.640;2022-08-03T10:19:39;17.90;;;2.85;;
51949;SDS011;37974;53.218;6.640;2022-08-03T10:22:09;18.38;;;3.20;;
51949;SDS011;37974;53.218;6.640;2022-08-03T10:24:49;15.90;;;2.92;;
51949;SDS011;37974;53.218;6.640;2022-08-03T10:27:20;17.40;;;2.85;;
51949;SDS011;37974;53.218;6.640;2022-08-03T10:29:52;10.30;;;2.58;;
51949;SDS011;37974;53.218;6.640;2022-08-03T10:32:24;11.75;;;2.83;;
51949;SDS011;37974;53.218;6.640;2022-08-03T10:34:59;14.45;;;2.85;;
51949;SDS011;37974;53.218;6.640;2022-08-03T10:37:31;11.88;;;2.70;;
51949;SDS011;37974;53.218;6.640;2022-08-03T10:40:00;11.43;;;2.53;;
51949;SDS011;37974;53.218;6.640;2022-08-03T10:42:27;14.70;;;2.65;;
51949;SDS011;37974;53.218;6.640;2022-08-03T10:45:02;16.75;;;2.97;;
51949;SDS011;37974;53.218;6.640;2022-08-03T10:47:31;12.77;;;2.40;;
51949;SDS011;37974;53.218;6.640;2022-08-03T10:49:58;13.52;;;2.20;;
51949;SDS011;37974;53.218;6.640;2022-08-03T10:52:25;9.93;;;2.30;;
51949;SDS011;37974;53.218;6.640;2022-08-03T10:54:51;11.88;;;2.63;;
51949;SDS011;37974;53.218;6.640;2022-08-03T10:57:42;14.80;;;2.92;;
51949;SDS011;37974;53.218;6.640;2022-08-03T11:00:11;11.15;;;2.60;;
51949;SDS011;37974;53.218;6.640;2022-08-03T11:03:15;15.35;;;2.63;;
51949;SDS011;37974;53.218;6.640;2022-08-03T11:05:34;19.05;;;3.50;;
51949;SDS011;37974;53.218;6.640;2022-08-03T11:08:21;19.50;;;2.85;;
51949;SDS011;37974;53.218;6.640;2022-08-03T11:10:57;18.85;;;2.80;;
51949;SDS011;37974;53.218;6.640;2022-08-03T11:13:58;16.65;;;3.30;;
51949;SDS011;37974;53.218;6.640;2022-08-03T11:16:27;13.50;;;2.80;;
51949;SDS011;37974;53.218;6.640;2022-08-03T11:18:56;12.45;;;3.40;;
51949;SDS011;37974;53.218;6.640;2022-08-03T11:21:55;19.20;;;3.30;;
51949;SDS011;37974;53.218;6.640;2022-08-03T11:32:52;13.77;;;3.00;;
51949;SDS011;37974;53.218;6.640;2022-08-03T11:43:06;15.23;;;3.28;;
51949;SDS011;37974;53.218;6.640;2022-08-03T11:46:04;16.08;;;2.92;;
51949;SDS011;37974;53.218;6.640;2022-08-03T11:50:59;22.83;;;3.83;;
51949;SDS011;37974;53.218;6.640;2022-08-03T11:53:27;17.05;;;3.45;;
51949;SDS011;37974;53.218;6.640;2022-08-03T11:55:52;22.27;;;3.53;;
51949;SDS011;37974;53.218;6.640;2022-08-03T11:58:22;23.48;;;3.83;;
51949;SDS011;37974;53.218;6.640;2022-08-03T12:00:48;19.45;;;3.63;;
51949;SDS011;37974;53.218;6.640;2022-08-03T12:03:16;25.63;;;3.97;;
51949;SDS011;37974;53.218;6.640;2022-08-03T12:05:45;17.88;;;4.43;;
51949;SDS011;37974;53.218;6.640;2022-08-03T12:08:13;19.13;;;3.80;;
51949;SDS011;37974;53.218;6.640;2022-08-03T12:10:45;18.85;;;4.28;;
51949;SDS011;37974;53.218;6.640;2022-08-03T12:13:12;23.67;;;4.07;;
51949;SDS011;37974;53.218;6.640;2022-08-03T12:15:39;23.38;;;3.92;;
51949;SDS011;37974;53.218;6.640;2022-08-03T12:18:40;21.98;;;3.35;;
51949;SDS011;37974;53.218;6.640;2022-08-03T12:21:07;23.92;;;3.92;;
51949;SDS011;37974;53.218;6.640;2022-08-03T12:23:34;20.20;;;4.20;;
51949;SDS011;37974;53.218;6.640;2022-08-03T12:26:02;16.45;;;3.15;;
51949;SDS011;37974;53.218;6.640;2022-08-03T12:28:30;29.52;;;3.78;;
51949;SDS011;37974;53.218;6.640;2022-08-03T12:31:00;39.45;;;5.68;;
51949;SDS011;37974;53.218;6.640;2022-08-03T12:33:30;24.90;;;3.17;;
51949;SDS011;37974;53.218;6.640;2022-08-03T12:38:34;14.43;;;3.28;;
51949;SDS011;37974;53.218;6.640;2022-08-03T12:41:03;17.67;;;3.47;;
51949;SDS011;37974;53.218;6.640;2022-08-03T12:43:31;32.10;;;4.97;;
51949;SDS011;37974;53.218;6.640;2022-08-03T12:46:07;19.70;;;3.92;;
51949;SDS011;37974;53.218;6.640;2022-08-03T12:48:34;22.80;;;3.95;;
51949;SDS011;37974;53.218;6.640;2022-08-03T12:51:06;20.60;;;3.58;;
51949;SDS011;37974;53.218;6.640;2022-08-03T12:53:34;20.20;;;3.10;;
51949;SDS011;37974;53.218;6.640;2022-08-03T12:56:01;27.33;;;4.15;;
51949;SDS011;37974;53.218;6.640;2022-08-03T12:58:28;20.63;;;4.05;;
51949;SDS011;37974;53.218;6.640;2022-08-03T13:00:57;20.45;;;3.72;;
51949;SDS011;37974;53.218;6.640;2022-08-03T13:03:23;21.02;;;3.72;;
51949;SDS011;37974;53.218;6.640;2022-08-03T13:05:49;18.55;;;3.20;;
51949;SDS011;37974;53.218;6.640;2022-08-03T13:08:18;22.88;;;4.60;;
51949;SDS011;37974;53.218;6.640;2022-08-03T13:10:45;18.40;;;3.22;;
51949;SDS011;37974;53.218;6.640;2022-08-03T13:13:11;30.25;;;3.90;;
51949;SDS011;37974;53.218;6.640;2022-08-03T13:15:38;23.20;;;3.75;;
51949;SDS011;37974;53.218;6.640;2022-08-03T13:18:07;22.30;;;3.58;;
51949;SDS011;37974;53.218;6.640;2022-08-03T13:20:33;22.98;;;3.30;;
51949;SDS011;37974;53.218;6.640;2022-08-03T13:22:59;18.20;;;3.45;;
51949;SDS011;37974;53.218;6.640;2022-08-03T13:25:25;18.65;;;3.30;;
51949;SDS011;37974;53.218;6.640;2022-08-03T13:27:51;24.02;;;4.53;;
51949;SDS011;37974;53.218;6.640;2022-08-03T13:30:17;14.20;;;3.20;;
51949;SDS011;37974;53.218;6.640;2022-08-03T13:32:46;27.33;;;3.63;;
51949;SDS011;37974;53.218;6.640;2022-08-03T13:35:14;16.70;;;4.38;;
51949;SDS011;37974;53.218;6.640;2022-08-03T13:37:41;14.85;;;3.03;;
51949;SDS011;37974;53.218;6.640;2022-08-03T13:40:07;18.73;;;4.13;;
51949;SDS011;37974;53.218;6.640;2022-08-03T13:42:39;23.65;;;4.57;;
51949;SDS011;37974;53.218;6.640;2022-08-03T13:45:13;19.75;;;3.55;;
51949;SDS011;37974;53.218;6.640;2022-08-03T13:47:39;22.77;;;4.53;;
51949;SDS011;37974;53.218;6.640;2022-08-03T13:50:05;18.58;;;3.97;;
51949;SDS011;37974;53.218;6.640;2022-08-03T13:52:34;22.30;;;5.15;;
51949;SDS011;37974;53.218;6.640;2022-08-03T13:55:09;16.38;;;3.60;;
51949;SDS011;37974;53.218;6.640;2022-08-03T13:57:35;15.82;;;3.42;;
51949;SDS011;37974;53.218;6.640;2022-08-03T14:00:01;17.48;;;3.42;;
51949;SDS011;37974;53.218;6.640;2022-08-03T14:02:28;21.40;;;4.53;;
51949;SDS011;37974;53.218;6.640;2022-08-03T14:04:59;15.98;;;3.58;;
51949;SDS011;37974;53.218;6.640;2022-08-03T14:07:25;14.93;;;3.92;;
51949;SDS011;37974;53.218;6.640;2022-08-03T14:09:51;14.95;;;4.10;;
51949;SDS011;37974;53.218;6.640;2022-08-03T14:12:19;15.48;;;3.67;;
51949;SDS011;37974;53.218;6.640;2022-08-03T14:14:48;16.17;;;3.42;;
51949;SDS011;37974;53.218;6.640;2022-08-03T14:17:16;23.20;;;4.00;;
51949;SDS011;37974;53.218;6.640;2022-08-03T14:19:42;16.20;;;3.22;;
51949;SDS011;37974;53.218;6.640;2022-08-03T14:22:14;18.83;;;4.13;;
51949;SDS011;37974;53.218;6.640;2022-08-03T14:24:52;17.15;;;3.55;;
51949;SDS011;37974;53.218;6.640;2022-08-03T14:27:27;21.08;;;4.20;;
51949;SDS011;37974;53.218;6.640;2022-08-03T14:29:53;14.80;;;3.15;;
51949;SDS011;37974;53.218;6.640;2022-08-03T14:32:32;16.48;;;4.00;;
51949;SDS011;37974;53.218;6.640;2022-08-03T14:34:58;17.92;;;3.35;;
51949;SDS011;37974;53.218;6.640;2022-08-03T14:37:23;14.80;;;3.85;;
51949;SDS011;37974;53.218;6.640;2022-08-03T14:39:49;23.50;;;3.78;;
51949;SDS011;37974;53.218;6.640;2022-08-03T14:42:15;13.02;;;3.65;;
51949;SDS011;37974;53.218;6.640;2022-08-03T14:44:46;13.77;;;2.95;;
51949;SDS011;37974;53.218;6.640;2022-08-03T14:47:29;16.75;;;3.13;;
51949;SDS011;37974;53.218;6.640;2022-08-03T14:49:58;17.40;;;3.63;;
51949;SDS011;37974;53.218;6.640;2022-08-03T14:52:24;18.58;;;3.50;;
51949;SDS011;37974;53.218;6.640;2022-08-03T14:54:50;12.32;;;2.90;;
51949;SDS011;37974;53.218;6.640;2022-08-03T14:57:15;18.88;;;3.67;;
51949;SDS011;37974;53.218;6.640;2022-08-03T14:59:41;15.40;;;3.63;;
51949;SDS011;37974;53.218;6.640;2022-08-03T15:02:07;19.50;;;3.70;;
51949;SDS011;37974;53.218;6.640;2022-08-03T15:04:33;15.82;;;3.40;;
51949;SDS011;37974;53.218;6.640;2022-08-03T15:06:59;16.13;;;3.15;;
51949;SDS011;37974;53.218;6.640;2022-08-03T15:09:25;13.93;;;3.15;;
51949;SDS011;37974;53.218;6.640;2022-08-03T15:11:50;16.13;;;3.33;;
51949;SDS011;37974;53.218;6.640;2022-08-03T15:14:19;13.77;;;2.90;;